East Moline, Illinois
Current Conditions -  °F | °C
As of 7:52 PM on Monday 24 Nov 2014 (Local Time) from KMLI Reporting Station
Overcast Overcast  
Wind Chill: 12°   Ceiling: 2200
Heat Index: 27°   Visibility: 10mi
Dew Point: 21°   Wind: 23mph
Humidity: 78%   Direction: 270°W
Pressure: 29.8"   Gusts: 26mph
Location:  41.52°N, 90.44°W
Report Text: KMLI 250152Z 27020G23KT 10SM BKN022 OVC031 M03/M06 A2980 RMK AO2 PK WND 25028/0055 SNB0053E14 SLP099 P0000 T10281061
Loading
Personal Weather Stations






























Interactive Weather Map New forecast layout! Learn more

10-Day Weather Forecast

Advertisements
Track Severe Weather on mobile